createdAt,value
2018-06-16T00:02:07.690Z,66.32
2018-06-16T00:04:37.501Z,66.57
2018-06-16T00:07:07.456Z,66.33
2018-06-16T00:09:37.253Z,66.50
2018-06-16T00:12:07.350Z,66.71
2018-06-16T00:14:37.232Z,66.67
2018-06-16T00:17:07.054Z,66.47
2018-06-16T00:19:37.128Z,66.50
2018-06-16T00:22:06.993Z,66.82
2018-06-16T00:24:36.790Z,67.12
2018-06-16T00:27:06.664Z,68.12
2018-06-16T00:29:36.425Z,67.56
2018-06-16T00:32:06.390Z,67.22
2018-06-16T00:34:36.178Z,67.19
2018-06-16T00:37:06.106Z,67.57
2018-06-16T00:39:35.967Z,67.76
2018-06-16T00:42:05.781Z,67.95
2018-06-16T00:44:35.634Z,68.95
2018-06-16T00:47:05.545Z,68.48
2018-06-16T00:49:35.338Z,68.54
2018-06-16T00:52:05.150Z,68.64
2018-06-16T00:54:34.890Z,68.86
2018-06-16T00:57:15.184Z,68.74
2018-06-16T00:59:44.954Z,68.94
2018-06-16T01:02:14.775Z,69.30
2018-06-16T01:04:44.533Z,69.01
2018-06-16T01:07:14.338Z,69.26
2018-06-16T01:09:44.092Z,69.23
2018-06-16T01:12:14.062Z,69.06
2018-06-16T01:14:43.897Z,69.30
2018-06-16T01:17:13.713Z,68.96
2018-06-16T01:19:43.701Z,69.33
2018-06-16T01:22:13.493Z,69.10
2018-06-16T01:24:43.330Z,69.19
2018-06-16T01:27:13.314Z,69.00
2018-06-16T01:29:43.097Z,68.99
2018-06-16T01:32:12.891Z,69.13
2018-06-16T01:34:42.662Z,69.55
2018-06-16T01:37:12.477Z,69.34
2018-06-16T01:39:42.245Z,69.14
2018-06-16T01:42:12.371Z,69.53
2018-06-16T01:44:42.158Z,69.49
2018-06-16T01:47:11.954Z,69.66
2018-06-16T01:49:41.757Z,69.39
2018-06-16T01:52:11.841Z,69.62
2018-06-16T01:54:41.643Z,69.54
2018-06-16T01:57:11.413Z,69.27
2018-06-16T01:59:41.665Z,69.31
2018-06-16T02:02:11.446Z,69.39
2018-06-16T02:04:41.295Z,69.41
2018-06-16T02:07:11.065Z,69.20
2018-06-16T02:09:40.850Z,68.95
2018-06-16T02:12:10.714Z,69.54
2018-06-16T02:14:40.534Z,69.32
2018-06-16T02:17:10.356Z,69.64
2018-06-16T02:19:40.164Z,69.47
2018-06-16T02:22:10.055Z,69.25
2018-06-16T02:24:39.894Z,69.16
2018-06-16T02:27:09.690Z,69.50
2018-06-16T02:29:39.466Z,69.81
2018-06-16T02:32:09.532Z,70.28
2018-06-16T02:34:39.313Z,70.33
2018-06-16T02:37:09.061Z,70.06
2018-06-16T02:39:38.857Z,69.88
2018-06-16T02:42:08.689Z,70.45
2018-06-16T02:44:38.489Z,70.62
2018-06-16T02:47:08.258Z,70.68
2018-06-16T02:49:38.136Z,70.57
2018-06-16T02:52:08.565Z,70.31
2018-06-16T02:54:38.333Z,70.91
2018-06-16T02:57:08.218Z,71.62
2018-06-16T02:59:37.984Z,72.06
2018-06-16T03:02:07.743Z,71.75
2018-06-16T03:04:37.681Z,71.91
2018-06-16T03:07:07.446Z,72.61
2018-06-16T03:09:37.274Z,72.42
2018-06-16T03:12:07.044Z,72.95
2018-06-16T03:14:37.021Z,72.50
2018-06-16T03:17:06.950Z,72.53
2018-06-16T03:19:36.858Z,73.01
2018-06-16T03:22:06.705Z,73.09
2018-06-16T03:24:36.799Z,73.32
2018-06-16T03:27:06.593Z,73.51
2018-06-16T03:29:36.393Z,72.98
2018-06-16T03:32:06.221Z,74.16
2018-06-16T03:34:35.969Z,73.68
2018-06-16T03:37:05.788Z,73.78
2018-06-16T03:39:35.613Z,73.66
2018-06-16T03:42:05.397Z,73.76
2018-06-16T03:44:35.193Z,73.69
2018-06-16T03:47:05.049Z,73.61
2018-06-16T03:49:34.865Z,73.83
2018-06-16T03:52:04.717Z,74.19
2018-06-16T03:54:34.486Z,73.86
2018-06-16T03:57:04.672Z,74.40
2018-06-16T03:59:34.777Z,73.67
2018-06-16T04:02:04.629Z,74.37
2018-06-16T04:04:34.379Z,73.88
2018-06-16T04:07:04.145Z,73.75
2018-06-16T04:09:33.946Z,74.23
2018-06-16T04:12:03.831Z,73.46
2018-06-16T04:14:33.653Z,73.48
2018-06-16T04:17:33.994Z,73.58
2018-06-16T04:20:03.823Z,73.31
2018-06-16T04:22:33.613Z,74.21
2018-06-16T04:25:03.481Z,74.19
2018-06-16T04:27:33.291Z,73.78
2018-06-16T04:30:03.110Z,74.05
2018-06-16T04:32:32.931Z,74.28
2018-06-16T04:35:02.723Z,74.04
2018-06-16T04:37:32.541Z,73.60
2018-06-16T04:40:02.304Z,74.29
2018-06-16T04:42:32.068Z,73.72
2018-06-16T04:45:01.882Z,73.83
2018-06-16T04:47:31.630Z,73.83
2018-06-16T04:50:01.428Z,73.31
2018-06-16T04:52:31.193Z,73.28
2018-06-16T04:55:00.967Z,73.57
2018-06-16T04:57:30.801Z,73.88
2018-06-16T05:00:00.565Z,73.67
2018-06-16T05:02:30.385Z,73.64
2018-06-16T05:05:00.142Z,73.27
2018-06-16T05:07:29.901Z,74.24
2018-06-16T05:09:59.694Z,74.17
2018-06-16T05:12:29.677Z,74.16
2018-06-16T05:14:59.855Z,74.48
2018-06-16T05:17:29.665Z,74.59
2018-06-16T05:19:59.468Z,73.73
2018-06-16T05:22:29.210Z,74.05
2018-06-16T05:24:59.191Z,73.44
2018-06-16T05:27:29.329Z,73.19
2018-06-16T05:29:59.473Z,73.02
2018-06-16T05:32:29.289Z,73.33
2018-06-16T05:34:59.042Z,73.18
2018-06-16T05:37:28.841Z,72.55
2018-06-16T05:39:58.625Z,72.07
2018-06-16T05:42:28.432Z,71.51
2018-06-16T05:44:59.010Z,72.32
2018-06-16T05:47:29.494Z,72.05
2018-06-16T05:49:59.637Z,72.06
2018-06-16T05:52:29.473Z,71.27
2018-06-16T05:54:59.253Z,70.08
2018-06-16T05:57:29.015Z,69.28
2018-06-16T05:59:58.830Z,70.01
2018-06-16T06:02:29.277Z,69.28
2018-06-16T06:04:59.084Z,69.15
2018-06-16T06:07:28.842Z,68.62
2018-06-16T06:09:58.640Z,68.49
2018-06-16T06:12:28.434Z,67.68
2018-06-16T06:14:58.243Z,65.35
2018-06-16T06:17:28.058Z,64.12
2018-06-16T06:19:57.934Z,62.71
2018-06-16T06:22:27.695Z,61.94
2018-06-16T06:24:57.525Z,60.57
2018-06-16T06:27:27.369Z,60.96
2018-06-16T06:29:57.217Z,60.83
2018-06-16T06:32:27.004Z,60.74
2018-06-16T06:34:56.813Z,59.99
2018-06-16T06:37:26.553Z,59.03
2018-06-16T06:39:56.602Z,59.61
2018-06-16T06:42:26.483Z,58.66
2018-06-16T06:44:56.453Z,58.31
2018-06-16T06:47:26.181Z,57.92
2018-06-16T06:49:55.908Z,57.79
2018-06-16T06:52:25.688Z,57.82
2018-06-16T06:54:55.424Z,56.58
2018-06-16T06:57:25.193Z,55.81
2018-06-16T06:59:54.958Z,56.07
2018-06-16T07:02:24.745Z,56.03
2018-06-16T07:04:54.498Z,55.29
2018-06-16T07:07:24.324Z,56.12
2018-06-16T07:09:54.721Z,55.94
2018-06-16T07:12:24.526Z,54.77
2018-06-16T07:14:54.317Z,53.86
2018-06-16T07:17:24.208Z,53.56
2018-06-16T07:19:53.978Z,52.84
2018-06-16T07:22:23.762Z,51.43
2018-06-16T07:24:53.762Z,50.56
2018-06-16T07:27:25.520Z,49.93
2018-06-16T07:29:57.534Z,49.77
2018-06-16T07:32:27.326Z,48.98
2018-06-16T07:34:57.081Z,48.41
2018-06-16T07:37:26.871Z,47.08
2018-06-16T07:39:56.678Z,47.99
2018-06-16T07:42:26.501Z,47.34
2018-06-16T07:44:56.263Z,47.78
2018-06-16T07:47:26.315Z,45.91
2018-06-16T07:49:56.294Z,44.78
2018-06-16T07:52:26.256Z,46.39
2018-06-16T07:54:56.027Z,45.49
2018-06-16T07:57:25.769Z,45.04
2018-06-16T07:59:55.539Z,46.36
2018-06-16T08:02:25.331Z,44.49
2018-06-16T08:04:55.136Z,44.25
2018-06-16T08:07:24.903Z,44.10
2018-06-16T08:09:55.294Z,43.47
2018-06-16T08:12:25.097Z,42.78
2018-06-16T08:14:54.986Z,43.75
2018-06-16T08:17:24.938Z,43.60
2018-06-16T08:19:54.853Z,43.21
2018-06-16T08:22:24.726Z,42.75
2018-06-16T08:24:54.768Z,41.61
2018-06-16T08:27:24.637Z,41.21
2018-06-16T08:29:54.450Z,42.42
2018-06-16T08:32:24.279Z,42.16
2018-06-16T08:34:54.118Z,41.77
2018-06-16T08:37:23.926Z,39.69
2018-06-16T08:39:53.788Z,40.43
2018-06-16T08:42:23.697Z,40.66
2018-06-16T08:44:53.555Z,41.60
2018-06-16T08:47:23.372Z,40.69
2018-06-16T08:49:53.614Z,38.07
2018-06-16T08:52:23.391Z,38.86
2018-06-16T08:54:53.577Z,38.30
2018-06-16T08:57:23.403Z,38.39
2018-06-16T08:59:53.313Z,38.98
2018-06-16T09:02:23.159Z,38.44
2018-06-16T09:04:53.427Z,36.94
2018-06-16T09:07:25.754Z,37.06
2018-06-16T09:09:55.710Z,37.91
2018-06-16T09:12:25.602Z,35.84
2018-06-16T09:14:55.409Z,37.69
2018-06-16T09:17:25.322Z,38.26
2018-06-16T09:19:55.391Z,38.08
2018-06-16T09:22:25.301Z,38.11
2018-06-16T09:24:55.562Z,37.75
2018-06-16T09:27:25.581Z,37.18
2018-06-16T09:29:55.459Z,36.53
2018-06-16T09:32:25.405Z,36.75
2018-06-16T09:34:55.169Z,36.15
2018-06-16T09:37:24.985Z,36.93
2018-06-16T09:39:55.207Z,35.25
2018-06-16T09:42:25.097Z,36.56
2018-06-16T09:44:55.150Z,35.96
2018-06-16T09:47:24.973Z,36.83
2018-06-16T09:49:57.697Z,35.91
2018-06-16T09:52:28.183Z,34.60
2018-06-16T09:54:58.123Z,34.39
2018-06-16T09:57:27.957Z,34.64
2018-06-16T09:59:57.788Z,34.62
2018-06-16T10:02:27.721Z,34.52
2018-06-16T10:04:57.996Z,34.05
2018-06-16T10:07:27.932Z,35.12
2018-06-16T10:09:57.907Z,34.65
2018-06-16T10:12:27.847Z,33.93
2018-06-16T10:14:58.465Z,34.12
2018-06-16T10:17:28.354Z,32.42
2018-06-16T10:19:58.529Z,33.24
2018-06-16T10:22:28.873Z,33.32
2018-06-16T10:24:58.877Z,32.99
2018-06-16T10:27:28.736Z,32.13
2018-06-16T10:29:58.655Z,31.54
2018-06-16T10:32:28.533Z,32.59
2018-06-16T10:34:58.353Z,32.31
2018-06-16T10:37:28.153Z,31.77
2018-06-16T10:39:57.984Z,31.54
2018-06-16T10:42:27.843Z,31.28
2018-06-16T10:44:57.725Z,29.93
2018-06-16T10:47:27.565Z,31.07
2018-06-16T10:49:57.706Z,31.33
2018-06-16T10:52:27.592Z,30.03
2018-06-16T10:54:57.494Z,30.52
2018-06-16T10:57:27.281Z,31.05
2018-06-16T10:59:57.270Z,30.72
2018-06-16T11:02:27.087Z,30.52
2018-06-16T11:04:57.113Z,30.42
2018-06-16T11:07:27.021Z,30.63
2018-06-16T11:09:56.881Z,30.67
2018-06-16T11:12:26.794Z,30.42
2018-06-16T11:14:56.605Z,30.59
2018-06-16T11:17:26.570Z,29.60
2018-06-16T11:19:56.508Z,28.77
2018-06-16T11:22:26.401Z,30.04
2018-06-16T11:24:56.412Z,30.48
2018-06-16T11:27:26.371Z,30.76
2018-06-16T11:29:56.280Z,30.99
2018-06-16T11:32:26.135Z,30.93
2018-06-16T11:34:56.044Z,29.95
2018-06-16T11:37:26.201Z,30.74
2018-06-16T11:39:56.161Z,30.55
2018-06-16T11:42:26.427Z,29.24
2018-06-16T11:44:56.494Z,29.46
2018-06-16T11:47:26.352Z,29.61
2018-06-16T11:49:56.898Z,29.32
2018-06-16T11:52:27.299Z,29.18
2018-06-16T11:54:57.213Z,29.16
2018-06-16T11:57:27.420Z,30.48
2018-06-16T11:59:57.355Z,30.30
2018-06-16T12:02:27.323Z,31.09
2018-06-16T12:04:57.463Z,32.72
2018-06-16T12:07:27.430Z,32.34
2018-06-16T12:09:57.390Z,32.71
2018-06-16T12:12:27.274Z,31.91
2018-06-16T12:14:57.225Z,30.67
2018-06-16T12:17:27.087Z,31.55
2018-06-16T12:19:57.013Z,31.43
2018-06-16T12:22:27.145Z,29.73
2018-06-16T12:24:57.053Z,29.59
2018-06-16T12:27:26.906Z,29.51
2018-06-16T12:29:56.902Z,28.65
2018-06-16T12:32:26.862Z,28.98
2018-06-16T12:34:57.165Z,27.45
2018-06-16T12:37:26.980Z,27.64
2018-06-16T12:39:56.911Z,27.22
2018-06-16T12:42:26.778Z,27.43
2018-06-16T12:44:56.722Z,27.29
2018-06-16T12:47:26.589Z,26.46
2018-06-16T12:49:56.489Z,26.94
2018-06-16T12:52:26.309Z,27.99
2018-06-16T12:54:56.247Z,28.66
2018-06-16T12:57:26.052Z,28.91
2018-06-16T12:59:55.986Z,29.44
2018-06-16T13:02:25.843Z,29.57
2018-06-16T13:04:55.818Z,29.01
2018-06-16T13:07:25.697Z,28.75
2018-06-16T13:09:55.531Z,27.02
2018-06-16T13:12:25.491Z,26.46
2018-06-16T13:14:55.357Z,27.32
2018-06-16T13:17:25.322Z,26.71
2018-06-16T13:19:55.219Z,25.74
2018-06-16T13:22:25.134Z,26.50
2018-06-16T13:24:55.413Z,25.98
2018-06-16T13:27:25.308Z,25.92
2018-06-16T13:29:55.769Z,25.87
2018-06-16T13:32:25.644Z,25.79
2018-06-16T13:34:55.579Z,26.06
2018-06-16T13:37:25.454Z,25.36
2018-06-16T13:39:55.366Z,25.82
2018-06-16T13:42:25.237Z,24.86
2018-06-16T13:44:55.406Z,25.42
2018-06-16T13:47:25.351Z,24.78
2018-06-16T13:49:55.249Z,24.07
2018-06-16T13:52:25.106Z,25.31
2018-06-16T13:54:54.981Z,25.97
2018-06-16T13:57:25.289Z,25.22
2018-06-16T13:59:55.107Z,24.14
2018-06-16T14:02:24.938Z,25.24
2018-06-16T14:04:56.648Z,25.12
2018-06-16T14:07:27.131Z,25.29
2018-06-16T14:09:57.302Z,24.90
2018-06-16T14:12:27.145Z,25.71
2018-06-16T14:14:57.149Z,25.58
2018-06-16T14:17:27.843Z,25.29
2018-06-16T14:19:57.801Z,25.21
2018-06-16T14:22:27.752Z,25.44
2018-06-16T14:24:57.705Z,25.36
2018-06-16T14:27:27.617Z,24.44
2018-06-16T14:29:57.510Z,24.91
2018-06-16T14:32:27.445Z,24.50
2018-06-16T14:34:57.316Z,23.73
2018-06-16T14:37:27.356Z,24.92
2018-06-16T14:39:57.275Z,24.04
2018-06-16T14:42:29.110Z,24.53
2018-06-16T14:44:59.725Z,24.37
2018-06-16T14:47:31.022Z,24.51
2018-06-16T14:50:00.966Z,24.77
2018-06-16T14:52:30.949Z,24.37
2018-06-16T14:55:00.825Z,23.53
2018-06-16T14:57:30.729Z,23.60
2018-06-16T15:00:00.576Z,24.71
2018-06-16T15:02:30.874Z,24.29
2018-06-16T15:05:00.921Z,24.86
2018-06-16T15:07:30.878Z,24.53
2018-06-16T15:10:00.711Z,25.16
2018-06-16T15:12:30.584Z,24.85
2018-06-16T15:15:00.445Z,24.67
2018-06-16T15:17:30.330Z,25.24
2018-06-16T15:20:00.261Z,25.35
2018-06-16T15:22:30.294Z,25.39
2018-06-16T15:25:00.168Z,25.56
2018-06-16T15:27:30.086Z,25.23
2018-06-16T15:30:00.023Z,26.17
2018-06-16T15:32:29.872Z,26.80
2018-06-16T15:34:59.740Z,25.59
2018-06-16T15:37:29.616Z,25.62
2018-06-16T15:39:59.506Z,24.28
2018-06-16T15:42:29.486Z,25.22
2018-06-16T15:44:59.361Z,24.96
2018-06-16T15:47:29.275Z,25.63
2018-06-16T15:49:59.098Z,24.82
2018-06-16T15:52:28.916Z,24.74
2018-06-16T15:54:58.800Z,25.48
2018-06-16T15:57:29.082Z,25.63
2018-06-16T15:59:58.937Z,25.59
2018-06-16T16:02:28.948Z,25.69
2018-06-16T16:04:58.818Z,25.35
2018-06-16T16:07:28.615Z,24.76
2018-06-16T16:09:58.788Z,24.86
2018-06-16T16:12:28.708Z,25.28
2018-06-16T16:14:58.647Z,25.51
2018-06-16T16:17:28.432Z,25.89
2018-06-16T16:19:58.324Z,25.75
2018-06-16T16:22:28.471Z,24.96
2018-06-16T16:24:58.357Z,25.19
2018-06-16T16:27:28.234Z,25.24
2018-06-16T16:29:58.069Z,25.61
2018-06-16T16:32:28.087Z,26.09
2018-06-16T16:34:57.917Z,25.86
2018-06-16T16:37:27.733Z,26.85
2018-06-16T16:39:57.663Z,27.40
2018-06-16T16:42:27.566Z,26.69
2018-06-16T16:44:57.510Z,26.64
2018-06-16T16:47:27.440Z,26.58
2018-06-16T16:49:57.358Z,26.61
2018-06-16T16:52:27.227Z,27.07
2018-06-16T16:54:57.240Z,27.66
2018-06-16T16:57:27.095Z,27.66
2018-06-16T16:59:56.949Z,27.83
2018-06-16T17:02:26.845Z,27.54
2018-06-16T17:04:56.797Z,27.76
2018-06-16T17:07:26.721Z,28.44
2018-06-16T17:09:56.588Z,27.58
2018-06-16T17:12:26.450Z,28.11
2018-06-16T17:14:56.371Z,28.71
2018-06-16T17:17:26.335Z,28.18
2018-06-16T17:19:56.146Z,28.47
2018-06-16T17:22:26.031Z,26.68
2018-06-16T17:24:55.909Z,28.05
2018-06-16T17:27:25.780Z,28.35
2018-06-16T17:29:55.672Z,28.62
2018-06-16T17:32:25.564Z,29.06
2018-06-16T17:34:55.528Z,28.33
2018-06-16T17:37:25.475Z,29.22
2018-06-16T17:39:55.401Z,29.24
2018-06-16T17:42:25.267Z,28.67
2018-06-16T17:44:55.219Z,29.10
2018-06-16T17:47:25.647Z,28.85
2018-06-16T17:49:55.839Z,29.56
2018-06-16T17:52:25.680Z,29.37
2018-06-16T17:54:55.586Z,29.38
2018-06-16T17:57:25.443Z,29.66
2018-06-16T17:59:55.366Z,30.17
2018-06-16T18:02:25.270Z,29.81
2018-06-16T18:04:55.247Z,29.92
2018-06-16T18:07:25.278Z,30.55
2018-06-16T18:09:55.215Z,30.27
2018-06-16T18:12:25.047Z,30.90
2018-06-16T18:14:55.089Z,31.58
2018-06-16T18:17:25.306Z,32.06
2018-06-16T18:19:55.146Z,31.70
2018-06-16T18:22:25.085Z,32.60
2018-06-16T18:24:56.748Z,32.43
2018-06-16T18:27:26.867Z,32.85
2018-06-16T18:29:56.726Z,33.10
2018-06-16T18:32:26.735Z,33.12
2018-06-16T18:34:56.566Z,33.50
2018-06-16T18:37:26.742Z,33.70
2018-06-16T18:39:56.999Z,33.50
2018-06-16T18:42:27.189Z,33.15
2018-06-16T18:44:57.385Z,33.76
2018-06-16T18:47:27.515Z,33.77
2018-06-16T18:49:57.493Z,34.21
2018-06-16T18:52:28.058Z,34.32
2018-06-16T18:54:57.949Z,35.00
2018-06-16T18:57:28.058Z,35.32
2018-06-16T18:59:57.992Z,35.38
2018-06-16T19:02:27.847Z,35.48
2018-06-16T19:04:57.982Z,35.27
2018-06-16T19:07:27.806Z,36.21
2018-06-16T19:09:57.621Z,36.09
2018-06-16T19:12:27.532Z,36.59
2018-06-16T19:14:57.399Z,36.27
2018-06-16T19:17:27.274Z,36.83
2018-06-16T19:19:57.298Z,36.71
2018-06-16T19:22:27.268Z,37.60
2018-06-16T19:24:57.235Z,38.19
2018-06-16T19:27:27.059Z,37.88
2018-06-16T19:29:56.945Z,37.91
2018-06-16T19:32:26.786Z,37.81
2018-06-16T19:34:56.715Z,38.24
2018-06-16T19:37:26.520Z,37.84
2018-06-16T19:39:56.386Z,38.02
2018-06-16T19:42:26.243Z,38.81
2018-06-16T19:44:56.022Z,38.35
2018-06-16T19:47:25.861Z,38.86
2018-06-16T19:49:55.677Z,38.72
2018-06-16T19:52:25.530Z,39.18
2018-06-16T19:54:55.429Z,39.24
2018-06-16T19:57:26.089Z,39.95
2018-06-16T19:59:56.325Z,39.60
2018-06-16T20:02:26.674Z,39.74
2018-06-16T20:04:56.508Z,39.84
2018-06-16T20:07:26.592Z,40.13
2018-06-16T20:09:56.477Z,40.35
2018-06-16T20:12:26.880Z,40.75
2018-06-16T20:14:56.794Z,40.83
2018-06-16T20:17:26.762Z,41.25
2018-06-16T20:19:56.769Z,41.44
2018-06-16T20:22:27.059Z,41.62
2018-06-16T20:24:57.815Z,41.58
2018-06-16T20:27:27.913Z,41.31
2018-06-16T20:29:57.842Z,41.33
2018-06-16T20:32:27.729Z,41.97
2018-06-16T20:34:57.545Z,41.80
2018-06-16T20:37:27.964Z,41.98
2018-06-16T20:39:58.139Z,42.50
2018-06-16T20:42:28.061Z,42.96
2018-06-16T20:44:57.858Z,42.40
2018-06-16T20:47:27.681Z,42.98
2018-06-16T20:49:57.580Z,42.83
2018-06-16T20:52:27.420Z,43.74
2018-06-16T20:54:57.306Z,43.69
2018-06-16T20:57:27.105Z,44.29
2018-06-16T20:59:56.885Z,44.52
2018-06-16T21:02:26.683Z,44.32
2018-06-16T21:04:56.458Z,44.62
2018-06-16T21:07:26.289Z,45.94
2018-06-16T21:09:56.078Z,46.35
2018-06-16T21:12:25.848Z,46.98
2018-06-16T21:17:24.346Z,47.35
2018-06-16T21:19:54.240Z,47.15
2018-06-16T21:22:24.005Z,47.57
2018-06-16T21:24:53.743Z,48.35
2018-06-16T21:27:23.909Z,48.41
2018-06-16T21:29:53.686Z,49.09
2018-06-16T21:32:23.482Z,49.72
2018-06-16T21:34:53.568Z,50.53
2018-06-16T21:37:23.435Z,50.99
2018-06-16T21:39:53.210Z,50.80
2018-06-16T21:42:24.293Z,51.13
2018-06-16T21:44:54.087Z,51.11
2018-06-16T21:47:23.857Z,51.42
2018-06-16T21:49:53.665Z,51.90
2018-06-16T21:52:23.982Z,51.89
2018-06-16T21:54:53.788Z,52.58
2018-06-16T21:57:23.635Z,52.74
2018-06-16T21:59:53.417Z,52.37
2018-06-16T22:02:23.233Z,52.38
2018-06-16T22:04:53.101Z,52.81
2018-06-16T22:07:22.841Z,53.00
2018-06-16T22:09:52.617Z,52.99
2018-06-16T22:12:22.361Z,52.79
2018-06-16T22:14:52.132Z,52.73
2018-06-16T22:17:21.962Z,52.99
2018-06-16T22:19:51.722Z,52.22
2018-06-16T22:22:21.578Z,52.97
2018-06-16T22:24:51.459Z,53.67
2018-06-16T22:27:21.370Z,53.84
2018-06-16T22:29:51.257Z,54.03
2018-06-16T22:32:21.064Z,54.83
2018-06-16T22:34:51.042Z,55.24
2018-06-16T22:37:20.802Z,55.39
2018-06-16T22:39:50.702Z,55.92
2018-06-16T22:42:20.495Z,55.72
2018-06-16T22:44:50.306Z,56.09
2018-06-16T22:47:20.143Z,56.51
2018-06-16T22:49:50.265Z,56.53
2018-06-16T22:52:20.066Z,56.86
2018-06-16T22:54:50.212Z,57.04
2018-06-16T22:57:20.104Z,56.95
2018-06-16T22:59:49.877Z,57.13
2018-06-16T23:02:19.654Z,57.13
2018-06-16T23:04:49.428Z,56.91
2018-06-16T23:07:19.259Z,56.55
2018-06-16T23:09:49.030Z,56.67
2018-06-16T23:12:19.025Z,57.16
2018-06-16T23:14:48.818Z,56.83
2018-06-16T23:17:18.577Z,56.77
2018-06-16T23:19:48.390Z,56.71
2018-06-16T23:22:18.490Z,56.70
2018-06-16T23:24:48.302Z,56.86
2018-06-16T23:27:18.037Z,56.67
2018-06-16T23:29:47.793Z,57.13
2018-06-16T23:32:17.955Z,57.16
2018-06-16T23:34:47.719Z,57.34
2018-06-16T23:37:17.535Z,57.62
2018-06-16T23:39:47.297Z,57.81
2018-06-16T23:42:17.073Z,57.98
2018-06-16T23:44:46.882Z,57.94
2018-06-16T23:47:16.630Z,58.05
2018-06-16T23:49:46.428Z,58.25
2018-06-16T23:52:16.186Z,58.40
2018-06-16T23:54:45.951Z,58.38
2018-06-16T23:57:15.742Z,58.30
2018-06-16T23:59:45.494Z,58.28
